Time;durP1;ratioP1;P1;durP2;ratioP2;P2;SDS_P1;SDS_P2;PMS_P1;PMS_P2;Temp;Humidity;BMP_temperature;BMP_pressure;BME280_temperature;BME280_humidity;BME280_pressure;Samples;Min_cycle;Max_cycle;Signal;HPM_P1;HPM_P2
2022/10/27 00:02:03;;;;;;;14.02;7.30;;;12.30;99.90;;;;;;4974912;28;20077;-80
2022/10/27 00:04:29;;;;;;;9.98;6.25;;;12.20;99.90;;;;;;4991353;28;20046;-81
2022/10/27 00:06:54;;;;;;;15.15;7.57;;;12.20;99.90;;;;;;4990930;28;20060;-80
2022/10/27 00:09:20;;;;;;;10.88;7.13;;;12.20;99.90;;;;;;4991518;28;20096;-80
2022/10/27 00:11:45;;;;;;;13.88;7.20;;;12.30;99.90;;;;;;4973826;28;20465;-80
2022/10/27 00:14:11;;;;;;;12.30;7.05;;;12.10;99.90;;;;;;4974911;28;20048;-80
2022/10/27 00:16:36;;;;;;;11.70;7.45;;;12.00;99.90;;;;;;4990567;28;20043;-80
2022/10/27 00:19:02;;;;;;;10.65;7.47;;;12.00;99.90;;;;;;4991028;28;20046;-80
2022/10/27 00:21:28;;;;;;;10.90;8.27;;;12.00;99.90;;;;;;4990808;28;20042;-81
2022/10/27 00:23:53;;;;;;;10.77;7.45;;;12.00;99.90;;;;;;4974062;28;20495;-80
2022/10/27 00:26:21;;;;;;;11.10;7.50;;;12.00;99.90;;;;;;4990287;28;20050;-80
2022/10/27 00:28:47;;;;;;;12.63;8.63;;;12.20;99.90;;;;;;4990604;28;20046;-80
2022/10/27 00:31:15;;;;;;;14.20;8.23;;;12.40;99.90;;;;;;4990425;28;20130;-80
2022/10/27 00:33:41;;;;;;;12.48;8.20;;;12.00;99.90;;;;;;4990503;28;20492;-80
2022/10/27 00:36:10;;;;;;;15.48;8.52;;;12.10;99.90;;;;;;4990452;28;20050;-81
2022/10/27 00:38:36;;;;;;;9.80;7.85;;;12.10;99.90;;;;;;4990151;28;20054;-80
2022/10/27 00:41:04;;;;;;;13.20;8.38;;;12.10;99.90;;;;;;4990036;28;20086;-80
2022/10/27 00:43:36;;;;;;;11.18;8.07;;;12.20;99.90;;;;;;4990051;28;20129;-81
2022/10/27 00:46:05;;;;;;;16.95;8.45;;;12.20;99.90;;;;;;4990136;28;20438;-80
2022/10/27 00:48:32;;;;;;;11.00;8.18;;;12.30;99.90;;;;;;4990578;28;20088;-80
2022/10/27 00:51:00;;;;;;;15.20;8.75;;;12.30;99.90;;;;;;4989815;28;20058;-81
2022/10/27 00:53:26;;;;;;;16.85;7.60;;;12.30;99.90;;;;;;4990237;28;20543;-81
2022/10/27 00:55:52;;;;;;;15.43;8.52;;;12.30;99.90;;;;;;4989775;28;20063;-81
2022/10/27 00:58:19;;;;;;;14.30;8.77;;;12.30;99.90;;;;;;4989766;28;20090;-81
2022/10/27 01:00:44;;;;;;;16.33;8.20;;;12.30;99.90;;;;;;4989732;28;20042;-81
2022/10/27 01:03:13;;;;;;;13.85;8.13;;;12.30;99.90;;;;;;4989547;28;20054;-81
2022/10/27 01:05:41;;;;;;;16.10;8.55;;;12.30;99.90;;;;;;4989896;28;20065;-81
2022/10/27 01:08:07;;;;;;;13.20;9.18;;;12.30;99.90;;;;;;4990238;28;20096;-80
2022/10/27 01:10:32;;;;;;;15.48;9.02;;;12.30;99.90;;;;;;4990266;28;20054;-80
2022/10/27 01:12:59;;;;;;;18.02;9.88;;;12.30;99.90;;;;;;4988974;28;20078;-80
2022/10/27 01:16:02;;;;;;;13.57;8.63;;;12.30;99.90;;;;;;4990381;28;20069;-81
2022/10/27 01:18:33;;;;;;;16.75;8.27;;;12.30;99.90;;;;;;4986914;28;20531;-81
2022/10/27 01:21:05;;;;;;;16.75;9.10;;;12.30;99.90;;;;;;4990106;28;20046;-81
2022/10/27 01:24:04;;;;;;;13.30;8.88;;;12.30;99.90;;;;;;4989341;28;20125;-81
2022/10/27 01:26:41;;;;;;;12.73;8.43;;;12.30;99.90;;;;;;4989011;28;20054;-81
2022/10/27 01:29:19;;;;;;;14.95;9.02;;;12.30;99.90;;;;;;4989845;28;20124;-81
2022/10/27 01:32:13;;;;;;;14.18;8.65;;;12.30;99.90;;;;;;4989618;28;20086;-80
2022/10/27 01:34:48;;;;;;;18.42;9.57;;;12.30;99.90;;;;;;4990003;28;20471;-81
2022/10/27 01:37:19;;;;;;;14.27;8.95;;;12.30;99.90;;;;;;4990055;28;20046;-81
2022/10/27 01:40:12;;;;;;;15.43;9.33;;;12.40;99.90;;;;;;4989353;28;20075;-80
2022/10/27 01:42:45;;;;;;;15.10;8.52;;;12.40;99.90;;;;;;4985333;28;20062;-80
2022/10/27 01:45:15;;;;;;;13.95;9.45;;;12.40;99.90;;;;;;4990235;28;20102;-80
2022/10/27 01:47:41;;;;;;;14.75;9.57;;;12.50;99.90;;;;;;4989992;28;20401;-81
2022/10/27 01:50:08;;;;;;;15.45;9.50;;;12.50;99.90;;;;;;4989106;28;20057;-81
2022/10/27 01:52:41;;;;;;;19.15;9.73;;;12.50;99.90;;;;;;4989444;28;20096;-81
2022/10/27 01:55:13;;;;;;;16.88;9.40;;;12.60;99.90;;;;;;4989448;28;20175;-81
2022/10/27 01:57:56;;;;;;;15.35;9.60;;;12.60;99.90;;;;;;4989073;28;20047;-81
2022/10/27 02:00:21;;;;;;;14.13;9.18;;;12.70;99.90;;;;;;4989765;28;20140;-81
2022/10/27 02:02:56;;;;;;;18.15;9.55;;;12.70;99.90;;;;;;4972699;28;20129;-81
2022/10/27 02:05:54;;;;;;;14.73;9.38;;;12.80;99.90;;;;;;4989618;28;20516;-81
2022/10/27 02:08:36;;;;;;;15.90;9.75;;;12.80;99.90;;;;;;4973223;28;20054;-81
2022/10/27 02:11:04;;;;;;;18.20;10.20;;;12.80;99.90;;;;;;4988653;28;20042;-81
2022/10/27 02:13:31;;;;;;;12.35;9.02;;;12.90;99.90;;;;;;4988543;28;20046;-81
2022/10/27 02:16:15;;;;;;;16.85;8.93;;;13.10;99.90;;;;;;4988238;28;20046;-81
2022/10/27 02:18:52;;;;;;;20.17;9.60;;;13.00;99.90;;;;;;4989021;28;20443;-81
2022/10/27 02:21:20;;;;;;;21.27;9.70;;;13.00;99.90;;;;;;4972140;28;20050;-81
2022/10/27 02:23:46;;;;;;;15.60;9.63;;;13.30;99.90;;;;;;4971866;28;20081;-81
2022/10/27 02:26:28;;;;;;;15.90;9.02;;;13.00;99.90;;;;;;4989866;28;20046;-81
2022/10/27 02:28:59;;;;;;;14.32;9.57;;;13.00;99.90;;;;;;4972098;28;20112;-81
2022/10/27 02:31:29;;;;;;;15.80;8.65;;;13.00;99.90;;;;;;4972446;28;20053;-81
2022/10/27 02:33:56;;;;;;;14.93;9.40;;;12.90;99.90;;;;;;4988212;28;20050;-81
2022/10/27 02:36:22;;;;;;;13.43;9.05;;;12.90;99.90;;;;;;4987972;28;20112;-81
2022/10/27 02:38:50;;;;;;;15.98;8.85;;;12.90;99.90;;;;;;4988415;28;20412;-81
2022/10/27 02:41:16;;;;;;;15.00;8.43;;;12.80;99.90;;;;;;4971677;28;20617;-81
2022/10/27 02:43:41;;;;;;;9.85;7.35;;;12.90;99.90;;;;;;4987904;28;20042;-81
2022/10/27 02:46:07;;;;;;;17.23;9.07;;;12.80;99.90;;;;;;4988237;28;20050;-81
2022/10/27 02:48:33;;;;;;;15.05;8.23;;;12.80;99.90;;;;;;4972221;28;20136;-81
2022/10/27 02:50:58;;;;;;;17.45;9.18;;;12.80;99.90;;;;;;4987590;28;20046;-81
2022/10/27 02:53:24;;;;;;;15.57;8.32;;;12.70;99.90;;;;;;4988042;28;20129;-81
2022/10/27 02:55:50;;;;;;;13.55;8.45;;;12.70;99.90;;;;;;4987785;28;20046;-81
2022/10/27 02:58:15;;;;;;;14.38;9.25;;;12.80;99.90;;;;;;4988797;28;20163;-81
2022/10/27 03:00:41;;;;;;;12.25;8.40;;;12.80;99.90;;;;;;4970311;28;20051;-81
2022/10/27 03:03:07;;;;;;;12.07;8.63;;;12.80;99.90;;;;;;4968736;28;20047;-81
2022/10/27 03:05:33;;;;;;;11.05;8.55;;;12.80;99.90;;;;;;4968463;28;20562;-82
2022/10/27 03:07:58;;;;;;;11.95;9.25;;;12.80;99.90;;;;;;4952158;28;20042;-81
2022/10/27 03:10:24;;;;;;;11.57;8.30;;;12.70;99.90;;;;;;4952388;28;20054;-81
2022/10/27 03:12:49;;;;;;;13.07;8.55;;;12.70;99.90;;;;;;4967629;28;20081;-81
2022/10/27 03:15:15;;;;;;;10.55;8.15;;;12.60;99.90;;;;;;4968382;28;20437;-82
2022/10/27 03:17:46;;;;;;;14.98;8.45;;;12.60;99.90;;;;;;4969541;28;20092;-81
2022/10/27 03:20:12;;;;;;;13.43;8.50;;;12.60;99.90;;;;;;4968523;28;20050;-81
2022/10/27 03:22:39;;;;;;;14.32;8.82;;;12.50;99.90;;;;;;4968766;28;20493;-81
2022/10/27 03:25:05;;;;;;;15.00;7.88;;;12.50;99.90;;;;;;4969782;28;20043;-81
2022/10/27 03:27:31;;;;;;;16.08;8.80;;;12.50;99.90;;;;;;4968602;28;20547;-81
2022/10/27 03:29:57;;;;;;;12.75;8.55;;;12.40;99.90;;;;;;4952277;28;20142;-81
2022/10/27 03:32:22;;;;;;;12.68;7.90;;;12.40;99.90;;;;;;4967927;28;20114;-81
2022/10/27 03:34:48;;;;;;;14.80;9.07;;;12.40;99.90;;;;;;4967545;28;20393;-81
2022/10/27 03:37:14;;;;;;;17.67;9.38;;;12.40;99.90;;;;;;4969621;28;20043;-81
2022/10/27 03:39:39;;;;;;;13.93;8.73;;;12.40;99.90;;;;;;4967956;28;20113;-82
2022/10/27 03:42:05;;;;;;;12.13;8.95;;;12.40;99.90;;;;;;4968983;28;20039;-81
2022/10/27 03:44:30;;;;;;;13.55;8.57;;;12.30;99.90;;;;;;4952210;28;20051;-81
2022/10/27 03:46:56;;;;;;;10.35;8.55;;;12.30;99.90;;;;;;4968450;28;20043;-81
2022/10/27 03:49:22;;;;;;;14.48;8.50;;;12.30;99.90;;;;;;4969200;28;20039;-81
2022/10/27 03:51:48;;;;;;;15.85;9.68;;;12.60;99.90;;;;;;4969193;28;20047;-82
2022/10/27 03:54:13;;;;;;;14.63;9.45;;;12.20;99.90;;;;;;4968089;28;20093;-81
2022/10/27 03:56:42;;;;;;;13.25;9.50;;;12.20;99.90;;;;;;4967113;28;20065;-82
2022/10/27 03:59:13;;;;;;;12.25;9.32;;;12.20;99.90;;;;;;4967843;28;20051;-81
2022/10/27 04:01:38;;;;;;;12.73;9.40;;;12.10;99.90;;;;;;4969011;28;20043;-81
2022/10/27 04:04:09;;;;;;;14.23;9.10;;;12.10;99.90;;;;;;4969146;28;20045;-81
2022/10/27 04:06:34;;;;;;;12.85;9.25;;;12.10;99.90;;;;;;4967766;28;20051;-81
2022/10/27 04:09:00;;;;;;;15.77;9.75;;;12.00;99.90;;;;;;4968000;28;20047;-81
2022/10/27 04:11:26;;;;;;;15.07;9.90;;;12.00;99.90;;;;;;4967371;28;20047;-81
2022/10/27 04:13:51;;;;;;;13.93;9.35;;;11.90;99.90;;;;;;4967922;28;20428;-82
2022/10/27 04:16:17;;;;;;;13.32;9.90;;;11.90;99.90;;;;;;4967899;28;20477;-81
2022/10/27 04:18:42;;;;;;;14.48;10.43;;;11.90;99.90;;;;;;4968022;28;20053;-81
2022/10/27 04:21:08;;;;;;;14.68;10.48;;;11.90;99.90;;;;;;4968763;28;20038;-81
2022/10/27 04:23:33;;;;;;;14.02;9.50;;;11.90;99.90;;;;;;4969091;28;20082;-81
2022/10/27 04:25:59;;;;;;;14.73;10.13;;;11.90;99.90;;;;;;4968933;28;20047;-81
2022/10/27 04:28:25;;;;;;;16.00;10.40;;;11.90;99.90;;;;;;4967252;28;20058;-81
2022/10/27 04:30:50;;;;;;;17.13;10.63;;;11.90;99.90;;;;;;4967274;28;20043;-82
2022/10/27 04:33:16;;;;;;;19.17;9.95;;;11.90;99.90;;;;;;4968839;28;20458;-81
2022/10/27 04:35:42;;;;;;;16.20;10.98;;;11.80;99.90;;;;;;4968897;28;20046;-81
2022/10/27 04:38:07;;;;;;;15.25;10.75;;;11.80;99.90;;;;;;4968682;28;20050;-81
2022/10/27 04:40:33;;;;;;;15.88;10.30;;;11.80;99.90;;;;;;4972129;28;20134;-81
2022/10/27 04:42:58;;;;;;;15.68;10.32;;;11.80;99.90;;;;;;4971785;28;20047;-81
2022/10/27 04:45:24;;;;;;;17.02;10.52;;;11.80;99.90;;;;;;4970763;28;20054;-81
2022/10/27 04:47:50;;;;;;;15.32;10.23;;;11.80;99.90;;;;;;4970515;28;20507;-81
2022/10/27 04:50:16;;;;;;;16.63;11.45;;;11.80;99.90;;;;;;4971279;28;20043;-81
2022/10/27 04:52:52;;;;;;;17.63;11.32;;;11.80;99.90;;;;;;4970776;28;20055;-81
2022/10/27 04:55:17;;;;;;;16.60;11.32;;;11.80;99.90;;;;;;4970602;28;20496;-81
2022/10/27 04:57:43;;;;;;;18.35;12.23;;;11.80;99.90;;;;;;4970382;28;20066;-82
2022/10/27 05:00:09;;;;;;;16.33;11.65;;;11.80;99.90;;;;;;4954522;28;20532;-81
2022/10/27 05:02:35;;;;;;;18.90;11.95;;;11.90;99.90;;;;;;4970289;28;20058;-81
2022/10/27 05:05:00;;;;;;;17.48;12.55;;;11.90;99.90;;;;;;4970578;28;20416;-81
2022/10/27 05:07:26;;;;;;;22.00;12.35;;;11.90;99.90;;;;;;4970739;28;20086;-82
2022/10/27 05:09:51;;;;;;;20.23;12.85;;;11.90;99.90;;;;;;4970439;28;20043;-82
2022/10/27 05:12:17;;;;;;;15.73;12.10;;;11.90;99.90;;;;;;4969744;28;20046;-82
2022/10/27 05:14:42;;;;;;;19.50;12.48;;;11.90;99.90;;;;;;4970256;28;20469;-82
2022/10/27 05:17:08;;;;;;;20.45;12.82;;;11.90;99.90;;;;;;4970390;28;20054;-82
2022/10/27 05:19:34;;;;;;;19.83;13.23;;;11.90;99.90;;;;;;4970552;28;20053;-82
2022/10/27 05:21:59;;;;;;;20.98;12.63;;;11.90;99.90;;;;;;4954068;28;20134;-81
2022/10/27 05:24:25;;;;;;;15.93;11.77;;;11.90;99.90;;;;;;4970643;28;20058;-81
2022/10/27 05:26:50;;;;;;;20.70;13.15;;;11.90;99.90;;;;;;4969798;28;20323;-81
2022/10/27 05:29:16;;;;;;;20.92;13.02;;;11.90;99.90;;;;;;4970061;28;20397;-81
2022/10/27 05:31:41;;;;;;;20.90;13.25;;;11.90;99.90;;;;;;4970193;28;20046;-81
2022/10/27 05:34:07;;;;;;;20.85;11.80;;;11.90;99.90;;;;;;4954401;28;20101;-81
2022/10/27 05:36:32;;;;;;;18.95;13.10;;;11.90;99.90;;;;;;4969970;28;20109;-82
2022/10/27 05:38:58;;;;;;;18.30;12.40;;;12.00;99.90;;;;;;4970443;28;20046;-82
2022/10/27 05:41:23;;;;;;;16.52;11.63;;;12.00;99.90;;;;;;4969408;28;20081;-82
2022/10/27 05:43:49;;;;;;;18.60;12.52;;;12.00;99.90;;;;;;4969807;28;20123;-80
2022/10/27 05:46:15;;;;;;;17.27;12.27;;;12.00;99.90;;;;;;4969757;28;20085;-81
2022/10/27 05:48:41;;;;;;;18.35;12.35;;;12.10;99.90;;;;;;4954292;28;20046;-81
2022/10/27 05:51:07;;;;;;;19.92;12.65;;;12.10;99.90;;;;;;4969243;28;20057;-81
2022/10/27 05:53:32;;;;;;;21.60;12.95;;;12.10;99.90;;;;;;4969942;28;20082;-81
2022/10/27 05:55:58;;;;;;;18.52;12.27;;;12.10;99.90;;;;;;4969113;28;20094;-80
2022/10/27 05:58:23;;;;;;;18.92;12.82;;;12.10;99.90;;;;;;4953349;28;20055;-82
2022/10/27 06:00:49;;;;;;;22.15;13.18;;;12.20;99.90;;;;;;4969557;28;20402;-81
2022/10/27 06:03:23;;;;;;;17.48;12.35;;;12.20;99.90;;;;;;4970496;28;20078;-81
2022/10/27 06:05:49;;;;;;;17.50;12.85;;;12.20;99.90;;;;;;4969917;28;20074;-81
2022/10/27 06:08:16;;;;;;;17.23;11.98;;;12.30;99.90;;;;;;4969507;28;20042;-81
2022/10/27 06:10:41;;;;;;;18.92;12.57;;;12.20;99.90;;;;;;4970555;28;20039;-81
2022/10/27 06:13:10;;;;;;;19.15;11.82;;;12.20;99.90;;;;;;4969071;28;20055;-81
2022/10/27 06:15:36;;;;;;;17.02;12.00;;;12.20;99.90;;;;;;4952790;28;20400;-81
2022/10/27 06:18:02;;;;;;;20.02;12.40;;;12.30;99.90;;;;;;4969383;28;20050;-80
2022/10/27 06:20:28;;;;;;;23.85;12.52;;;12.30;99.90;;;;;;4969555;28;20093;-81
2022/10/27 06:22:54;;;;;;;18.35;11.85;;;12.30;99.90;;;;;;4970460;28;20105;-81
2022/10/27 06:25:20;;;;;;;19.77;12.18;;;12.30;99.90;;;;;;4968951;28;20039;-81
2022/10/27 06:27:45;;;;;;;18.42;12.15;;;12.30;99.90;;;;;;4968628;28;20050;-81
2022/10/27 06:30:11;;;;;;;18.95;11.43;;;12.40;99.90;;;;;;4969897;28;20050;-81
2022/10/27 06:32:38;;;;;;;17.02;11.30;;;12.40;99.90;;;;;;4968500;28;20481;-81
2022/10/27 06:35:04;;;;;;;22.90;11.40;;;12.30;99.90;;;;;;4969284;28;20095;-81
2022/10/27 06:37:30;;;;;;;13.23;10.68;;;12.40;99.90;;;;;;4968879;28;20082;-81
2022/10/27 06:39:55;;;;;;;14.82;11.10;;;12.40;99.90;;;;;;4969158;28;20082;-81
2022/10/27 06:42:21;;;;;;;19.13;11.20;;;12.50;99.90;;;;;;4967746;28;20489;-81
2022/10/27 06:44:47;;;;;;;17.20;11.00;;;12.40;99.90;;;;;;4968878;28;20047;-81
2022/10/27 06:47:13;;;;;;;16.48;10.52;;;12.50;99.90;;;;;;4968646;28;20102;-81
2022/10/27 06:49:39;;;;;;;14.80;10.68;;;12.50;99.90;;;;;;4968542;28;20046;-81
2022/10/27 06:52:05;;;;;;;16.10;10.10;;;12.50;99.90;;;;;;4968554;28;20551;-81
2022/10/27 06:54:30;;;;;;;17.40;9.77;;;12.50;99.90;;;;;;4968894;28;20121;-81
2022/10/27 06:56:56;;;;;;;18.17;10.35;;;12.60;99.90;;;;;;4967851;28;20086;-81
2022/10/27 06:59:22;;;;;;;15.35;9.82;;;12.60;99.90;;;;;;4968741;28;20125;-81
2022/10/27 07:01:47;;;;;;;12.43;9.32;;;12.70;99.90;;;;;;4967699;28;20094;-82
2022/10/27 07:04:13;;;;;;;15.10;10.05;;;12.70;99.90;;;;;;4952382;28;20053;-81
2022/10/27 07:06:38;;;;;;;18.58;10.02;;;12.70;99.90;;;;;;4968537;28;20053;-82
2022/10/27 07:09:04;;;;;;;18.25;10.43;;;12.80;99.90;;;;;;4968675;28;20075;-81
2022/10/27 07:11:29;;;;;;;13.63;9.68;;;12.80;99.90;;;;;;4968021;28;20101;-81
2022/10/27 07:13:55;;;;;;;17.70;9.20;;;12.90;99.90;;;;;;4969038;28;20408;-81
2022/10/27 07:16:21;;;;;;;16.25;9.85;;;12.90;99.90;;;;;;4968657;28;20046;-80
2022/10/27 07:18:47;;;;;;;16.05;9.20;;;13.00;99.90;;;;;;4952887;28;20055;-81
2022/10/27 07:21:13;;;;;;;16.38;9.23;;;13.00;99.90;;;;;;4953098;28;20421;-80
2022/10/27 07:23:39;;;;;;;13.20;9.15;;;13.00;99.90;;;;;;4953058;28;20150;-80
2022/10/27 07:26:05;;;;;;;15.80;9.90;;;13.10;99.90;;;;;;4968074;28;20499;-80
2022/10/27 07:28:30;;;;;;;14.10;9.27;;;13.10;99.90;;;;;;4952610;28;20057;-81
2022/10/27 07:30:56;;;;;;;15.02;9.32;;;13.10;99.90;;;;;;4968611;28;20386;-81
2022/10/27 07:33:22;;;;;;;16.98;8.50;;;13.20;99.90;;;;;;4968564;28;20101;-82
2022/10/27 07:35:49;;;;;;;12.77;8.95;;;13.20;99.90;;;;;;4968884;28;20127;-81
2022/10/27 07:38:15;;;;;;;14.20;9.02;;;13.60;99.90;;;;;;4968468;28;20062;-82
2022/10/27 07:40:40;;;;;;;13.32;9.18;;;13.30;99.90;;;;;;4970227;28;20252;-82
2022/10/27 07:43:06;;;;;;;17.65;8.65;;;13.30;99.90;;;;;;4969178;28;20593;-82
2022/10/27 07:45:32;;;;;;;14.48;8.73;;;13.30;99.90;;;;;;4953033;28;20134;-82
2022/10/27 07:47:58;;;;;;;15.73;9.30;;;13.40;99.90;;;;;;4968474;28;20053;-82
2022/10/27 07:50:28;;;;;;;14.15;9.30;;;13.40;99.90;;;;;;4968178;28;20046;-82
2022/10/27 07:52:55;;;;;;;15.57;9.05;;;13.50;99.90;;;;;;4969657;28;20046;-82
2022/10/27 07:55:22;;;;;;;14.75;8.65;;;13.50;99.90;;;;;;4952241;28;20083;-82
2022/10/27 07:58:03;;;;;;;12.38;8.68;;;13.50;99.90;;;;;;4967576;28;20510;-82
2022/10/27 08:00:30;;;;;;;13.23;8.37;;;13.60;99.90;;;;;;4970006;28;20070;-82
2022/10/27 08:02:59;;;;;;;15.48;9.25;;;13.60;99.90;;;;;;4967649;28;20373;-82
2022/10/27 08:05:25;;;;;;;14.15;8.75;;;13.70;99.90;;;;;;4968327;28;20109;-81
2022/10/27 08:07:50;;;;;;;11.27;7.82;;;13.70;99.90;;;;;;4969438;28;20086;-82
2022/10/27 08:10:16;;;;;;;11.40;7.72;;;13.80;99.90;;;;;;4969762;28;20402;-82
2022/10/27 08:12:43;;;;;;;14.25;7.95;;;13.80;99.90;;;;;;4968789;28;20102;-82
2022/10/27 08:15:10;;;;;;;11.60;8.02;;;13.90;99.90;;;;;;4972221;28;20485;-81
2022/10/27 08:17:36;;;;;;;13.55;8.57;;;14.00;99.90;;;;;;4971235;28;20043;-81
2022/10/27 08:20:01;;;;;;;15.73;8.75;;;14.10;99.90;;;;;;4972028;28;20047;-82
2022/10/27 08:22:27;;;;;;;12.00;7.57;;;14.10;99.90;;;;;;4970683;28;20047;-82
2022/10/27 08:24:52;;;;;;;10.82;7.75;;;14.20;99.90;;;;;;4971653;28;20062;-81
2022/10/27 08:27:18;;;;;;;10.68;7.60;;;14.20;99.90;;;;;;4955430;28;20114;-81
2022/10/27 08:29:44;;;;;;;11.52;7.70;;;14.30;99.90;;;;;;4971936;28;20081;-82
2022/10/27 08:32:10;;;;;;;8.82;7.70;;;14.30;99.90;;;;;;4971687;28;20050;-82
2022/10/27 08:34:35;;;;;;;11.90;8.05;;;14.40;99.90;;;;;;4971460;28;20090;-82
2022/10/27 08:37:01;;;;;;;12.10;7.68;;;14.40;99.90;;;;;;4971808;28;20085;-82
2022/10/27 08:39:26;;;;;;;12.52;7.50;;;14.40;99.90;;;;;;4971531;28;20077;-82
2022/10/27 08:42:35;;;;;;;9.73;7.35;;;14.40;99.90;;;;;;4971271;28;20121;-82
2022/10/27 08:45:28;;;;;;;13.68;7.85;;;14.40;99.90;;;;;;4954936;28;20153;-82
2022/10/27 08:47:56;;;;;;;12.07;7.57;;;14.50;99.90;;;;;;4971459;28;20390;-82
2022/10/27 08:50:25;;;;;;;13.40;7.45;;;14.60;99.90;;;;;;4971486;28;20042;-82
2022/10/27 08:53:02;;;;;;;10.65;7.25;;;14.70;99.90;;;;;;4954805;28;20046;-82
2022/10/27 08:56:00;;;;;;;10.88;7.65;;;14.80;99.90;;;;;;4970615;28;20059;-82
2022/10/27 08:58:44;;;;;;;12.50;7.93;;;14.80;99.90;;;;;;4954701;28;20055;-82
2022/10/27 09:01:27;;;;;;;11.98;7.63;;;15.00;99.90;;;;;;4955201;28;20629;-82
2022/10/27 09:04:05;;;;;;;13.20;8.07;;;15.00;99.90;;;;;;4971086;28;20066;-82
2022/10/27 09:06:40;;;;;;;9.75;7.85;;;15.10;99.90;;;;;;4970717;28;20409;-81
2022/10/27 09:09:51;;;;;;;12.77;8.25;;;15.20;99.90;;;;;;4971118;28;20134;-81
2022/10/27 09:12:35;;;;;;;18.02;7.40;;;15.40;99.90;;;;;;4970038;28;20046;-82
2022/10/27 09:15:31;;;;;;;12.60;7.28;;;15.50;99.90;;;;;;4954743;28;20050;-82
2022/10/27 09:18:23;;;;;;;13.23;7.63;;;15.60;99.90;;;;;;4954642;28;20058;-82
2022/10/27 09:20:55;;;;;;;12.50;7.32;;;15.70;99.90;;;;;;4970355;28;20181;-82
2022/10/27 09:23:28;;;;;;;11.48;6.65;;;15.80;99.90;;;;;;4970907;28;20083;-82
2022/10/27 09:25:57;;;;;;;10.95;7.25;;;15.90;99.90;;;;;;4953236;28;20066;-81
2022/10/27 09:28:41;;;;;;;9.68;6.80;;;15.90;99.90;;;;;;4970628;28;20121;-82
2022/10/27 09:31:12;;;;;;;12.90;6.38;;;16.00;99.90;;;;;;4954624;28;20098;-82
2022/10/27 09:34:02;;;;;;;11.85;6.90;;;16.10;99.90;;;;;;4971054;28;20051;-82
2022/10/27 09:36:28;;;;;;;12.07;6.32;;;16.20;99.90;;;;;;4969861;28;20394;-82
2022/10/27 09:38:53;;;;;;;7.53;5.97;;;16.30;99.90;;;;;;4970899;28;20113;-82
2022/10/27 09:41:19;;;;;;;14.13;6.45;;;16.40;99.90;;;;;;4970131;28;20046;-82
2022/10/27 09:43:45;;;;;;;7.97;5.47;;;16.40;99.90;;;;;;4954409;28;20043;-82
2022/10/27 09:46:24;;;;;;;13.93;6.05;;;16.50;99.90;;;;;;4970705;28;20074;-82
2022/10/27 09:49:01;;;;;;;10.00;5.93;;;16.60;99.90;;;;;;4970434;28;20051;-82
2022/10/27 09:51:38;;;;;;;7.63;5.25;;;16.70;99.90;;;;;;4969531;28;20061;-82
2022/10/27 09:54:27;;;;;;;8.02;4.80;;;16.80;99.90;;;;;;4970566;28;20504;-82
2022/10/27 09:56:53;;;;;;;6.38;3.95;;;16.90;99.90;;;;;;4968917;28;20463;-82
2022/10/27 09:59:22;;;;;;;9.80;4.50;;;17.00;99.90;;;;;;4970140;28;20128;-82
2022/10/27 10:01:56;;;;;;;6.93;4.00;;;17.10;99.90;;;;;;4970927;28;20133;-82
2022/10/27 10:04:28;;;;;;;15.88;4.13;;;17.50;99.90;;;;;;4953814;28;20129;-82
2022/10/27 10:07:05;;;;;;;5.78;3.42;;;17.40;99.90;;;;;;4970227;28;20125;-82
2022/10/27 10:09:33;;;;;;;8.27;3.40;;;17.50;99.90;;;;;;4970214;28;20046;-81
2022/10/27 10:12:20;;;;;;;12.45;3.70;;;17.60;99.90;;;;;;4970218;28;20043;-82
2022/10/27 10:14:47;;;;;;;7.07;3.33;;;17.70;99.90;;;;;;4970981;28;20043;-82
2022/10/27 10:17:24;;;;;;;9.15;3.25;;;17.80;99.90;;;;;;4954113;28;20431;-82
2022/10/27 10:19:51;;;;;;;7.88;3.00;;;18.20;99.90;;;;;;4971196;28;20074;-82
2022/10/27 10:22:35;;;;;;;3.38;2.30;;;18.10;99.90;;;;;;4971137;28;20047;-82
2022/10/27 10:25:15;;;;;;;3.58;2.40;;;18.20;99.90;;;;;;4969590;28;20870;-82
2022/10/27 10:27:46;;;;;;;7.10;2.50;;;18.30;99.90;;;;;;4968968;28;20055;-82
2022/10/27 10:30:18;;;;;;;4.78;1.95;;;18.50;99.90;;;;;;4969780;28;20034;-82
2022/10/27 10:32:49;;;;;;;8.88;1.77;;;18.70;99.90;;;;;;4953281;28;20051;-82
2022/10/27 10:35:44;;;;;;;6.30;2.08;;;18.80;99.90;;;;;;4953318;28;20051;-83
2022/10/27 10:38:22;;;;;;;3.70;1.90;;;18.90;99.90;;;;;;4953443;28;20485;-83
2022/10/27 10:41:03;;;;;;;7.45;2.20;;;18.90;99.90;;;;;;4969335;28;20057;-81
2022/10/27 10:43:29;;;;;;;6.03;2.13;;;18.90;99.90;;;;;;4953160;28;20055;-84
2022/10/27 10:45:56;;;;;;;4.13;2.03;;;18.90;99.90;;;;;;4968922;28;20054;-83
2022/10/27 10:48:28;;;;;;;3.90;1.80;;;18.90;99.90;;;;;;4968980;28;20073;-83
2022/10/27 10:50:55;;;;;;;6.72;1.77;;;18.90;99.90;;;;;;4970735;28;20076;-82
2022/10/27 10:53:28;;;;;;;3.22;1.60;;;18.90;99.90;;;;;;4969141;28;20484;-82
2022/10/27 10:55:56;;;;;;;5.72;1.88;;;18.90;99.90;;;;;;4969183;28;20066;-81
2022/10/27 10:58:24;;;;;;;2.08;1.40;;;18.80;99.90;;;;;;4968174;28;20055;-82
2022/10/27 11:01:05;;;;;;;3.28;1.27;;;18.90;99.90;;;;;;4969373;28;20748;-82
2022/10/27 11:03:35;;;;;;;3.30;1.40;;;19.00;99.90;;;;;;4969265;28;20093;-82
2022/10/27 11:06:03;;;;;;;4.40;1.30;;;19.10;99.90;;;;;;4969904;28;20124;-82
2022/10/27 11:08:41;;;;;;;4.80;1.40;;;19.10;99.90;;;;;;4968414;28;20047;-82
2022/10/27 11:11:15;;;;;;;3.88;1.50;;;19.20;99.90;;;;;;4970202;28;20093;-81
2022/10/27 11:13:53;;;;;;;3.92;1.65;;;19.30;99.90;;;;;;4952769;28;20085;-82
2022/10/27 11:16:20;;;;;;;5.40;1.50;;;19.20;99.90;;;;;;4952904;28;20066;-83
2022/10/27 11:18:51;;;;;;;2.60;1.30;;;19.30;99.90;;;;;;4970021;28;20485;-82
2022/10/27 11:21:20;;;;;;;5.00;1.70;;;19.20;99.90;;;;;;4968774;28;20093;-82
2022/10/27 11:23:55;;;;;;;3.65;1.20;;;19.20;99.90;;;;;;4968531;28;20066;-83
2022/10/27 11:26:27;;;;;;;7.18;1.48;;;19.20;99.90;;;;;;4952446;28;20043;-82
2022/10/27 11:29:08;;;;;;;;;;;19.20;99.90;;;;;;4969255;28;20054;-83
2022/10/27 11:31:48;;;;;;;3.70;1.38;;;19.10;99.90;;;;;;4967799;28;19933;-82
2022/10/27 11:34:30;;;;;;;4.32;1.30;;;19.00;99.90;;;;;;4968783;28;20142;-83
2022/10/27 11:37:22;;;;;;;8.13;1.30;;;19.00;99.90;;;;;;4969748;28;20471;-82
2022/10/27 11:40:13;;;;;;;10.30;1.35;;;19.00;99.90;;;;;;4952568;28;20050;-82
2022/10/27 11:42:51;;;;;;;7.22;1.30;;;18.90;99.90;;;;;;4967736;28;20126;-83
2022/10/27 11:45:23;;;;;;;8.25;1.60;;;18.90;99.90;;;;;;4952855;28;20513;-83
2022/10/27 11:48:21;;;;;;;7.90;1.95;;;18.90;99.90;;;;;;4952906;28;20138;-82
2022/10/27 11:51:28;;;;;;;3.88;1.52;;;19.00;99.90;;;;;;4972329;28;20067;-82
2022/10/27 11:53:57;;;;;;;6.65;1.73;;;19.00;99.90;;;;;;4972614;28;20138;-83
2022/10/27 11:56:41;;;;;;;3.63;1.60;;;19.00;99.90;;;;;;4955212;28;20086;-83
2022/10/27 11:59:25;;;;;;;14.30;1.70;;;19.00;99.90;;;;;;4972845;28;20062;-82
2022/10/27 12:01:57;;;;;;;4.35;1.55;;;19.00;99.90;;;;;;4972100;28;20050;-82
2022/10/27 12:04:41;;;;;;;3.95;1.20;;;19.00;99.90;;;;;;4972619;28;20561;-82
2022/10/27 12:07:18;;;;;;;4.07;1.50;;;19.00;99.90;;;;;;4972393;28;20092;-82
2022/10/27 12:10:11;;;;;;;3.08;1.35;;;19.20;99.90;;;;;;4971900;28;20053;-82
2022/10/27 12:12:40;;;;;;;4.18;1.45;;;19.00;99.90;;;;;;4954883;28;20054;-82
2022/10/27 12:15:15;;;;;;;8.30;1.50;;;19.00;99.90;;;;;;4972019;28;20077;-82
2022/10/27 12:17:48;;;;;;;7.63;2.13;;;19.00;99.90;;;;;;4955831;28;20086;-83
2022/10/27 12:20:23;;;;;;;4.65;1.52;;;19.00;99.90;;;;;;4955992;28;20055;-83
2022/10/27 12:23:18;;;;;;;3.70;1.48;;;19.00;99.90;;;;;;4971316;28;20053;-83
2022/10/27 12:26:09;;;;;;;6.13;1.50;;;19.00;99.90;;;;;;4971092;28;20065;-81
2022/10/27 12:28:36;;;;;;;4.05;1.60;;;19.00;99.90;;;;;;4955107;28;20133;-83
2022/10/27 12:31:06;;;;;;;3.38;1.88;;;19.00;99.90;;;;;;4971240;28;20043;-82
2022/10/27 12:33:46;;;;;;;2.85;1.70;;;19.00;99.90;;;;;;4955007;28;20046;-83
2022/10/27 12:36:44;;;;;;;3.72;1.90;;;19.00;99.90;;;;;;4970243;28;20051;-83
2022/10/27 12:39:30;;;;;;;3.78;1.83;;;18.90;99.90;;;;;;4971504;28;20659;-82
2022/10/27 12:42:23;;;;;;;5.47;1.80;;;18.90;99.90;;;;;;4954346;28;20083;-83
2022/10/27 12:45:24;;;;;;;2.97;1.33;;;18.90;99.90;;;;;;4955091;28;20042;-83
2022/10/27 12:48:27;;;;;;;12.02;2.50;;;18.90;99.90;;;;;;4971092;28;20170;-82
2022/10/27 12:51:08;;;;;;;4.50;2.08;;;18.90;99.90;;;;;;4955008;28;20321;-83
2022/10/27 12:53:46;;;;;;;6.93;1.90;;;19.40;99.90;;;;;;4970727;28;20050;-83
2022/10/27 12:56:41;;;;;;;5.57;2.38;;;19.00;99.90;;;;;;4970972;28;20105;-83
2022/10/27 12:59:24;;;;;;;5.03;2.00;;;18.90;99.90;;;;;;4969678;28;20445;-83